Bayard, Nebraska
Current Conditions -  °F | °C
As of 3:53 PM on Sunday 21 Dec 2014 (Local Time) from KBFF Reporting Station
Overcast Overcast  
Wind Chill: 35°   Ceiling: 7000
Heat Index: 41°   Visibility: 10mi
Dew Point: 32°   Wind: 10mph
Humidity: 70%   Direction: 300°WNW
Pressure: 29.47"   Gusts: 20mph
Location:  41.75°N, 103.32°W
Report Text: KBFF 212253Z AUTO 30009G17KT 10SM SCT055 OVC070 05/00 A2947 RMK AO2 SLP999 T00500000
Loading
Personal Weather Stations






























Interactive Weather Map New forecast layout! Learn more

10-Day Weather Forecast

Advertisements
Track Severe Weather on mobile